createdAt,value
2022-11-08T00:00:21.054Z,0.00
2022-11-08T00:01:21.030Z,0.00
2022-11-08T00:02:21.202Z,0.00
2022-11-08T00:03:21.073Z,0.00
2022-11-08T00:04:20.996Z,0.00
2022-11-08T00:05:21.042Z,0.00
2022-11-08T00:06:20.976Z,0.00
2022-11-08T00:07:20.991Z,0.00
2022-11-08T00:08:21.077Z,0.00
2022-11-08T00:09:20.942Z,0.00
2022-11-08T00:10:20.942Z,0.00
2022-11-08T00:11:20.927Z,0.00
2022-11-08T00:12:20.909Z,0.00
2022-11-08T00:13:20.903Z,0.00
2022-11-08T00:14:20.894Z,0.00
2022-11-08T00:15:20.886Z,0.00
2022-11-08T00:16:20.878Z,0.00
2022-11-08T00:17:20.853Z,0.00
2022-11-08T00:18:20.842Z,0.00
2022-11-08T00:19:20.849Z,0.00
2022-11-08T00:20:20.827Z,0.00
2022-11-08T00:21:20.818Z,0.00
2022-11-08T00:22:20.814Z,0.00
2022-11-08T00:23:20.821Z,0.00
2022-11-08T00:24:20.799Z,0.00
2022-11-08T00:25:20.772Z,0.00
2022-11-08T00:26:20.754Z,0.00
2022-11-08T00:27:20.742Z,0.00
2022-11-08T00:28:20.736Z,0.00
2022-11-08T00:29:20.738Z,0.00
2022-11-08T00:30:20.728Z,0.00
2022-11-08T00:31:20.700Z,0.00
2022-11-08T00:32:20.689Z,0.00
2022-11-08T00:33:20.674Z,0.00
2022-11-08T00:34:20.678Z,0.00
2022-11-08T00:35:20.670Z,0.00
2022-11-08T00:36:20.670Z,0.00
2022-11-08T00:37:20.644Z,0.00
2022-11-08T00:38:20.875Z,0.00
2022-11-08T00:39:20.638Z,0.00
2022-11-08T00:40:20.608Z,0.00
2022-11-08T00:41:20.595Z,0.00
2022-11-08T00:42:20.586Z,0.00
2022-11-08T00:43:20.578Z,0.00
2022-11-08T00:44:20.557Z,0.00
2022-11-08T00:45:20.544Z,0.00
2022-11-08T00:46:20.552Z,0.00
2022-11-08T00:47:20.537Z,0.00
2022-11-08T00:48:20.824Z,0.00
2022-11-08T00:49:20.500Z,0.00
2022-11-08T00:50:20.496Z,0.00
2022-11-08T00:51:20.479Z,0.00
2022-11-08T00:52:20.481Z,0.00
2022-11-08T00:53:20.465Z,0.00
2022-11-08T00:54:20.453Z,0.00
2022-11-08T00:55:20.477Z,0.00
2022-11-08T00:56:20.426Z,0.00
2022-11-08T00:57:22.284Z,0.00
2022-11-08T00:58:24.891Z,0.00
2022-11-08T00:59:21.405Z,0.00
2022-11-08T01:00:20.398Z,0.00
2022-11-08T01:01:20.479Z,0.00
2022-11-08T01:02:20.396Z,0.00
2022-11-08T01:03:20.362Z,0.00
2022-11-08T01:04:20.336Z,0.00
2022-11-08T01:05:20.328Z,0.00
2022-11-08T01:06:20.331Z,0.00
2022-11-08T01:07:20.306Z,0.00
2022-11-08T01:08:20.695Z,0.00
2022-11-08T01:09:20.294Z,0.00
2022-11-08T01:10:20.289Z,0.00
2022-11-08T01:11:20.289Z,0.00
2022-11-08T01:12:20.265Z,0.00
2022-11-08T01:13:20.244Z,0.00
2022-11-08T01:14:20.243Z,0.00
2022-11-08T01:15:20.351Z,0.00
2022-11-08T01:16:20.210Z,0.00
2022-11-08T01:17:20.193Z,0.00
2022-11-08T01:18:20.649Z,0.00
2022-11-08T01:19:20.185Z,0.00
2022-11-08T01:20:20.179Z,0.00
2022-11-08T01:21:20.160Z,0.00
2022-11-08T01:22:20.149Z,0.00
2022-11-08T01:23:20.137Z,0.00
2022-11-08T01:24:20.149Z,0.00
2022-11-08T01:25:20.106Z,0.00
2022-11-08T01:26:20.102Z,0.00
2022-11-08T01:27:20.105Z,0.00
2022-11-08T01:28:20.521Z,0.00
2022-11-08T01:29:20.070Z,0.00
2022-11-08T01:30:20.066Z,0.00
2022-11-08T01:31:20.047Z,0.00
2022-11-08T01:32:20.029Z,0.00
2022-11-08T01:33:20.020Z,0.00
2022-11-08T01:34:20.014Z,0.00
2022-11-08T01:35:20.004Z,0.00
2022-11-08T01:36:20.000Z,0.00
2022-11-08T01:37:19.983Z,0.00
2022-11-08T01:38:20.451Z,0.00
2022-11-08T01:39:19.955Z,0.00
2022-11-08T01:40:19.948Z,0.00
2022-11-08T01:41:19.936Z,0.00
2022-11-08T01:42:19.928Z,0.00
2022-11-08T01:43:19.951Z,0.00
2022-11-08T01:44:19.910Z,0.00
2022-11-08T01:45:19.895Z,0.00
2022-11-08T01:46:19.948Z,0.00
2022-11-08T01:47:19.867Z,0.00
2022-11-08T01:48:20.233Z,0.00
2022-11-08T01:49:19.853Z,0.00
2022-11-08T01:50:19.839Z,0.00
2022-11-08T01:51:19.830Z,0.00
2022-11-08T01:52:19.821Z,0.00
2022-11-08T01:53:19.816Z,0.00
2022-11-08T01:54:19.810Z,0.00
2022-11-08T01:55:19.785Z,0.00
2022-11-08T01:56:19.766Z,0.00
2022-11-08T01:57:19.755Z,0.00
2022-11-08T01:58:20.157Z,0.00
2022-11-08T01:59:19.762Z,0.00
2022-11-08T02:00:19.738Z,0.00
2022-11-08T02:01:19.800Z,0.00
2022-11-08T02:02:19.801Z,0.00
2022-11-08T02:03:19.691Z,0.00
2022-11-08T02:04:19.686Z,0.00
2022-11-08T02:05:19.675Z,0.00
2022-11-08T02:06:19.673Z,0.00
2022-11-08T02:07:19.646Z,0.00
2022-11-08T02:08:20.154Z,0.00
2022-11-08T02:09:19.629Z,0.00
2022-11-08T02:10:19.621Z,0.00
2022-11-08T02:11:19.627Z,0.00
2022-11-08T02:12:19.591Z,0.00
2022-11-08T02:13:19.580Z,0.00
2022-11-08T02:14:19.589Z,0.00
2022-11-08T02:15:19.578Z,0.00
2022-11-08T02:16:19.569Z,0.00
2022-11-08T02:17:19.537Z,0.00
2022-11-08T02:18:19.841Z,0.00
2022-11-08T02:19:19.513Z,0.00
2022-11-08T02:20:19.509Z,0.00
2022-11-08T02:21:19.498Z,0.00
2022-11-08T02:22:19.499Z,0.00
2022-11-08T02:23:19.471Z,0.00
2022-11-08T02:24:19.465Z,0.00
2022-11-08T02:25:19.456Z,0.00
2022-11-08T02:26:19.445Z,0.00
2022-11-08T02:27:19.436Z,0.00
2022-11-08T02:28:19.727Z,0.00
2022-11-08T02:29:19.428Z,0.00
2022-11-08T02:30:19.393Z,0.00
2022-11-08T02:31:19.408Z,0.00
2022-11-08T02:32:19.390Z,0.00
2022-11-08T02:33:19.358Z,0.00
2022-11-08T02:34:19.350Z,0.00
2022-11-08T02:35:19.370Z,0.00
2022-11-08T02:36:19.334Z,0.00
2022-11-08T02:37:19.323Z,0.00
2022-11-08T02:38:19.798Z,0.00
2022-11-08T02:39:19.294Z,0.00
2022-11-08T02:40:19.289Z,0.00
2022-11-08T02:41:19.296Z,0.00
2022-11-08T02:42:19.264Z,0.00
2022-11-08T02:43:19.257Z,0.00
2022-11-08T02:44:19.251Z,0.00
2022-11-08T02:45:19.238Z,0.00
2022-11-08T02:46:19.228Z,0.00
2022-11-08T02:47:19.249Z,0.00
2022-11-08T02:48:19.706Z,0.00
2022-11-08T02:49:19.191Z,0.00
2022-11-08T02:50:19.184Z,0.00
2022-11-08T02:51:19.163Z,0.00
2022-11-08T02:52:19.158Z,0.00
2022-11-08T02:53:19.152Z,0.00
2022-11-08T02:54:19.148Z,0.00
2022-11-08T02:55:19.132Z,0.00
2022-11-08T02:56:19.116Z,0.00
2022-11-08T02:57:19.104Z,0.00
2022-11-08T02:58:19.559Z,0.00
2022-11-08T02:59:19.072Z,0.00
2022-11-08T03:00:19.097Z,0.00
2022-11-08T03:01:19.120Z,0.00
2022-11-08T03:02:19.185Z,0.00
2022-11-08T03:03:19.055Z,0.00
2022-11-08T03:04:19.028Z,0.00
2022-11-08T03:05:19.032Z,0.00
2022-11-08T03:06:19.012Z,0.00
2022-11-08T03:07:24.559Z,0.00
2022-11-08T03:08:20.518Z,0.00
2022-11-08T03:09:18.980Z,0.00
2022-11-08T03:10:18.960Z,0.00
2022-11-08T03:11:18.942Z,0.00
2022-11-08T03:12:18.931Z,0.00
2022-11-08T03:13:18.928Z,0.00
2022-11-08T03:14:18.931Z,0.00
2022-11-08T03:15:18.917Z,0.00
2022-11-08T03:16:18.898Z,0.00
2022-11-08T03:17:18.876Z,0.00
2022-11-08T03:18:19.380Z,0.00
2022-11-08T03:19:18.886Z,0.00
2022-11-08T03:20:18.845Z,0.00
2022-11-08T03:21:18.854Z,0.00
2022-11-08T03:22:18.823Z,0.00
2022-11-08T03:23:18.810Z,0.00
2022-11-08T03:24:18.801Z,0.00
2022-11-08T03:25:18.789Z,0.00
2022-11-08T03:26:18.780Z,0.00
2022-11-08T03:27:18.790Z,0.00
2022-11-08T03:28:22.685Z,0.00
2022-11-08T03:29:18.755Z,0.00
2022-11-08T03:30:18.763Z,0.00
2022-11-08T03:31:18.731Z,0.00
2022-11-08T03:32:18.730Z,0.00
2022-11-08T03:33:18.716Z,0.00
2022-11-08T03:34:18.695Z,0.00
2022-11-08T03:35:18.705Z,0.00
2022-11-08T03:36:18.676Z,0.00
2022-11-08T03:37:18.674Z,0.00
2022-11-08T03:38:18.944Z,0.00
2022-11-08T03:39:18.635Z,0.00
2022-11-08T03:40:18.628Z,0.00
2022-11-08T03:41:18.613Z,0.00
2022-11-08T03:42:18.610Z,0.00
2022-11-08T03:43:18.611Z,0.00
2022-11-08T03:44:18.587Z,0.00
2022-11-08T03:45:18.582Z,0.00
2022-11-08T03:46:18.566Z,0.00
2022-11-08T03:47:18.556Z,0.00
2022-11-08T03:48:18.860Z,0.00
2022-11-08T03:49:18.564Z,0.00
2022-11-08T03:50:18.519Z,0.00
2022-11-08T03:51:18.536Z,0.00
2022-11-08T03:52:18.503Z,0.00
2022-11-08T03:53:18.492Z,0.00
2022-11-08T03:54:18.493Z,0.00
2022-11-08T03:55:18.470Z,0.00
2022-11-08T03:56:18.458Z,0.00
2022-11-08T03:57:18.457Z,0.00
2022-11-08T03:58:18.775Z,0.00
2022-11-08T03:59:18.426Z,0.00
2022-11-08T04:00:18.417Z,0.00
2022-11-08T04:01:18.489Z,0.00
2022-11-08T04:02:18.521Z,0.00
2022-11-08T04:03:18.374Z,0.00
2022-11-08T04:04:18.375Z,0.00
2022-11-08T04:05:18.367Z,0.00
2022-11-08T04:06:18.351Z,0.00
2022-11-08T04:07:18.369Z,0.00
2022-11-08T04:08:18.788Z,0.00
2022-11-08T04:09:21.487Z,0.00
2022-11-08T04:10:18.304Z,0.00
2022-11-08T04:11:18.293Z,0.00
2022-11-08T04:12:18.284Z,0.00
2022-11-08T04:13:18.293Z,0.00
2022-11-08T04:14:18.267Z,0.00
2022-11-08T04:15:18.246Z,0.00
2022-11-08T04:16:18.324Z,0.00
2022-11-08T04:17:18.234Z,0.00
2022-11-08T04:18:18.612Z,0.00
2022-11-08T04:19:18.216Z,0.00
2022-11-08T04:20:18.196Z,0.00
2022-11-08T04:21:18.181Z,0.00
2022-11-08T04:22:18.202Z,0.00
2022-11-08T04:23:18.203Z,0.00
2022-11-08T04:24:18.143Z,0.00
2022-11-08T04:25:18.134Z,0.00
2022-11-08T04:26:18.129Z,0.00
2022-11-08T04:27:18.125Z,0.00
2022-11-08T04:28:18.600Z,0.00
2022-11-08T04:29:18.106Z,0.00
2022-11-08T04:30:18.078Z,0.00
2022-11-08T04:31:18.067Z,0.00
2022-11-08T04:32:18.057Z,0.00
2022-11-08T04:33:18.060Z,0.00
2022-11-08T04:34:18.044Z,0.00
2022-11-08T04:35:18.027Z,0.00
2022-11-08T04:36:18.016Z,0.00
2022-11-08T04:37:18.002Z,0.00
2022-11-08T04:38:18.315Z,0.00
2022-11-08T04:39:18.015Z,0.00
2022-11-08T04:40:17.984Z,0.00
2022-11-08T04:41:17.958Z,0.00
2022-11-08T04:42:17.958Z,0.00
2022-11-08T04:43:17.935Z,0.00
2022-11-08T04:44:17.931Z,0.00
2022-11-08T04:45:17.921Z,0.00
2022-11-08T04:46:17.920Z,0.00
2022-11-08T04:47:17.899Z,0.00
2022-11-08T04:48:18.231Z,0.00
2022-11-08T04:49:17.873Z,0.00
2022-11-08T04:50:17.862Z,0.00
2022-11-08T04:51:17.854Z,0.00
2022-11-08T04:52:17.864Z,0.00
2022-11-08T04:53:17.841Z,0.00
2022-11-08T04:54:17.822Z,0.00
2022-11-08T04:55:17.851Z,0.00
2022-11-08T04:56:17.795Z,0.00
2022-11-08T04:57:17.794Z,0.00
2022-11-08T04:58:18.095Z,0.00
2022-11-08T04:59:17.768Z,0.00
2022-11-08T05:00:17.750Z,0.00
2022-11-08T05:01:17.844Z,0.00
2022-11-08T05:02:17.909Z,0.00
2022-11-08T05:03:17.724Z,0.00
2022-11-08T05:04:17.710Z,0.00
2022-11-08T05:05:17.704Z,0.00
2022-11-08T05:06:17.684Z,0.00
2022-11-08T05:07:17.685Z,0.00
2022-11-08T05:08:17.989Z,0.00
2022-11-08T05:09:17.659Z,0.00
2022-11-08T05:10:17.654Z,0.00
2022-11-08T05:11:17.652Z,0.00
2022-11-08T05:12:17.631Z,0.00
2022-11-08T05:13:17.614Z,0.00
2022-11-08T05:14:17.632Z,0.00
2022-11-08T05:15:17.587Z,0.00
2022-11-08T05:16:17.601Z,0.00
2022-11-08T05:17:17.571Z,0.00
2022-11-08T05:18:17.843Z,0.00
2022-11-08T05:19:17.550Z,0.00
2022-11-08T05:20:17.568Z,0.00
2022-11-08T05:21:17.523Z,0.00
2022-11-08T05:22:17.516Z,0.00
2022-11-08T05:23:17.506Z,0.00
2022-11-08T05:24:17.501Z,0.00
2022-11-08T05:25:17.476Z,0.00
2022-11-08T05:26:17.476Z,0.00
2022-11-08T05:27:17.483Z,0.00
2022-11-08T05:28:17.843Z,0.00
2022-11-08T05:29:17.448Z,0.00
2022-11-08T05:30:17.429Z,0.00
2022-11-08T05:31:17.433Z,0.00
2022-11-08T05:32:17.413Z,0.00
2022-11-08T05:33:17.391Z,0.00
2022-11-08T05:34:17.386Z,0.00
2022-11-08T05:35:17.379Z,0.00
2022-11-08T05:36:17.363Z,0.00
2022-11-08T05:37:17.356Z,0.00
2022-11-08T05:38:17.710Z,0.00
2022-11-08T05:39:17.329Z,0.00
2022-11-08T05:40:17.327Z,0.00
2022-11-08T05:41:17.305Z,0.00
2022-11-08T05:42:17.291Z,0.00
2022-11-08T05:43:17.630Z,0.00
2022-11-08T05:44:17.271Z,0.00
2022-11-08T05:45:17.281Z,0.00
2022-11-08T05:46:17.262Z,0.00
2022-11-08T05:47:17.239Z,0.00
2022-11-08T05:48:17.631Z,0.00
2022-11-08T05:49:17.222Z,0.00
2022-11-08T05:50:19.508Z,0.00
2022-11-08T05:51:17.192Z,0.00
2022-11-08T05:52:17.196Z,0.00
2022-11-08T05:53:17.394Z,0.00
2022-11-08T05:54:17.178Z,0.00
2022-11-08T05:55:17.157Z,0.00
2022-11-08T05:56:17.154Z,0.00
2022-11-08T05:57:21.183Z,0.00
2022-11-08T05:58:17.117Z,0.00
2022-11-08T05:59:17.158Z,0.00
2022-11-08T06:00:17.105Z,0.00
2022-11-08T06:01:17.099Z,4.00
2022-11-08T06:02:17.179Z,0.00
2022-11-08T06:03:20.920Z,0.00
2022-11-08T06:04:18.101Z,4.00
2022-11-08T06:05:17.072Z,4.00
2022-11-08T06:06:17.058Z,4.00
2022-11-08T06:07:17.036Z,4.00
2022-11-08T06:08:17.026Z,4.00
2022-11-08T06:09:17.058Z,8.00
2022-11-08T06:10:17.009Z,8.00
2022-11-08T06:11:16.989Z,8.00
2022-11-08T06:12:16.976Z,8.00
2022-11-08T06:13:16.977Z,12.00
2022-11-08T06:14:16.998Z,16.00
2022-11-08T06:15:16.965Z,16.00
2022-11-08T06:16:16.926Z,20.00
2022-11-08T06:17:16.911Z,24.00
2022-11-08T06:18:16.920Z,28.00
2022-11-08T06:19:16.907Z,36.00
2022-11-08T06:20:16.897Z,36.00
2022-11-08T06:21:16.909Z,44.00
2022-11-08T06:22:16.895Z,52.00
2022-11-08T06:23:17.325Z,60.00
2022-11-08T06:24:16.847Z,72.00
2022-11-08T06:25:16.864Z,80.00
2022-11-08T06:26:16.825Z,92.00
2022-11-08T06:27:16.827Z,104.00
2022-11-08T06:28:16.817Z,120.00
2022-11-08T06:29:16.792Z,136.00
2022-11-08T06:30:16.790Z,152.00
2022-11-08T06:31:16.784Z,168.00
2022-11-08T06:32:16.775Z,184.00
2022-11-08T06:33:17.169Z,204.00
2022-11-08T06:34:16.753Z,228.00
2022-11-08T06:35:16.782Z,252.00
2022-11-08T06:36:16.707Z,280.00
2022-11-08T06:37:16.717Z,308.00
2022-11-08T06:38:16.727Z,340.00
2022-11-08T06:39:16.697Z,376.00
2022-11-08T06:40:16.673Z,412.00
2022-11-08T06:41:16.691Z,448.00
2022-11-08T06:42:16.663Z,488.00
2022-11-08T06:43:19.863Z,528.00
2022-11-08T06:44:16.637Z,572.00
2022-11-08T06:45:16.617Z,612.00
2022-11-08T06:46:16.596Z,652.00
2022-11-08T06:47:16.641Z,692.00
2022-11-08T06:48:16.609Z,732.00
2022-11-08T06:49:16.572Z,768.00
2022-11-08T06:50:16.587Z,796.00
2022-11-08T06:51:16.567Z,820.00
2022-11-08T06:52:16.593Z,836.00
2022-11-08T06:53:16.889Z,860.00
2022-11-08T06:54:17.882Z,888.00
2022-11-08T06:55:16.529Z,924.00
2022-11-08T06:56:16.494Z,968.00
2022-11-08T06:57:16.488Z,1016.00
2022-11-08T06:58:16.481Z,1072.00
2022-11-08T06:59:16.499Z,1116.00
2022-11-08T07:00:16.443Z,1164.00
2022-11-08T07:01:16.505Z,1204.00
2022-11-08T07:02:16.594Z,1248.00
2022-11-08T07:03:16.879Z,1284.00
2022-11-08T07:04:16.416Z,1312.00
2022-11-08T07:05:16.410Z,1324.00
2022-11-08T07:06:16.383Z,1328.00
2022-11-08T07:07:16.393Z,1348.00
2022-11-08T07:08:22.343Z,1376.00
2022-11-08T07:09:17.361Z,1412.00
2022-11-08T07:10:16.414Z,1452.00
2022-11-08T07:11:16.340Z,1488.00
2022-11-08T07:12:16.333Z,1528.00
2022-11-08T07:13:16.736Z,1580.00
2022-11-08T07:14:16.297Z,1636.00
2022-11-08T07:15:16.290Z,1704.00
2022-11-08T07:16:16.297Z,1784.00
2022-11-08T07:17:16.274Z,1872.00
2022-11-08T07:18:16.334Z,1944.00
2022-11-08T07:19:16.257Z,2004.00
2022-11-08T07:20:16.239Z,2044.00
2022-11-08T07:21:16.247Z,2076.00
2022-11-08T07:22:16.208Z,2124.00
2022-11-08T07:23:16.203Z,2164.00
2022-11-08T07:24:16.205Z,2232.00
2022-11-08T07:25:16.180Z,2272.00
2022-11-08T07:26:16.235Z,2344.00
2022-11-08T07:27:16.154Z,2440.00
2022-11-08T07:28:16.141Z,2540.00
2022-11-08T07:29:16.379Z,2596.00
2022-11-08T07:30:16.124Z,2660.00
2022-11-08T07:31:16.117Z,2708.00
2022-11-08T07:32:16.104Z,2740.00
2022-11-08T07:33:16.592Z,2772.00
2022-11-08T07:34:16.091Z,2808.00
2022-11-08T07:35:16.095Z,2836.00
2022-11-08T07:36:16.059Z,2876.00
2022-11-08T07:37:16.054Z,2952.00
2022-11-08T07:38:16.052Z,3052.00
2022-11-08T07:39:16.022Z,3160.00
2022-11-08T07:40:16.020Z,3388.00
2022-11-08T07:41:15.998Z,3436.00
2022-11-08T07:42:15.979Z,3484.00
2022-11-08T07:43:15.994Z,3520.00
2022-11-08T07:44:15.963Z,3572.00
2022-11-08T07:45:15.972Z,3584.00
2022-11-08T07:46:16.034Z,3620.00
2022-11-08T07:47:15.968Z,3676.00
2022-11-08T07:48:15.933Z,3736.00
2022-11-08T07:49:15.917Z,3792.00
2022-11-08T07:50:17.875Z,3844.00
2022-11-08T07:51:15.908Z,3880.00
2022-11-08T07:52:15.866Z,3920.00
2022-11-08T07:53:16.372Z,3956.00
2022-11-08T07:54:15.869Z,3980.00
2022-11-08T07:55:15.848Z,3940.00
2022-11-08T07:56:15.847Z,3980.00
2022-11-08T07:57:15.831Z,3988.00
2022-11-08T07:58:15.812Z,3848.00
2022-11-08T07:59:15.796Z,3736.00
2022-11-08T08:00:15.789Z,3720.00
2022-11-08T08:01:15.802Z,3804.00
2022-11-08T08:02:15.873Z,3856.00
2022-11-08T08:03:16.269Z,3880.00
2022-11-08T08:04:15.733Z,3960.00
2022-11-08T08:05:15.733Z,4048.00
2022-11-08T08:06:15.754Z,4100.00
2022-11-08T08:07:15.836Z,4172.00
2022-11-08T08:08:15.729Z,4192.00
2022-11-08T08:09:15.707Z,4200.00
2022-11-08T08:10:15.675Z,4364.00
2022-11-08T08:11:15.656Z,4504.00
2022-11-08T08:12:15.661Z,4444.00
2022-11-08T08:13:16.029Z,4432.00
2022-11-08T08:14:15.641Z,4444.00
2022-11-08T08:15:15.769Z,4400.00
2022-11-08T08:16:15.622Z,4492.00
2022-11-08T08:17:15.597Z,4432.00
2022-11-08T08:18:15.598Z,4400.00
2022-11-08T08:19:15.582Z,4404.00
2022-11-08T08:20:15.556Z,4396.00
2022-11-08T08:21:15.572Z,4488.00
2022-11-08T08:22:15.542Z,4528.00
2022-11-08T08:23:15.788Z,4652.00
2022-11-08T08:24:15.527Z,4560.00
2022-11-08T08:25:15.502Z,4536.00
2022-11-08T08:26:15.512Z,4480.00
2022-11-08T08:27:15.489Z,4488.00
2022-11-08T08:28:15.572Z,4532.00
2022-11-08T08:29:15.473Z,4624.00
2022-11-08T08:30:15.458Z,4676.00
2022-11-08T08:31:15.461Z,4716.00
2022-11-08T08:32:15.444Z,4812.00
2022-11-08T08:33:27.911Z,4836.00
2022-11-08T08:34:16.420Z,4824.00
2022-11-08T08:35:15.840Z,4856.00
2022-11-08T08:36:15.451Z,4900.00
2022-11-08T08:37:15.411Z,5068.00
2022-11-08T08:38:15.361Z,5180.00
2022-11-08T08:39:15.419Z,5164.00
2022-11-08T08:40:15.363Z,5268.00
2022-11-08T08:41:15.362Z,5364.00
2022-11-08T08:42:15.309Z,5436.00
2022-11-08T08:43:15.571Z,5468.00
2022-11-08T08:44:15.346Z,5652.00
2022-11-08T08:45:15.431Z,5684.00
2022-11-08T08:46:15.316Z,5740.00
2022-11-08T08:47:15.293Z,5712.00
2022-11-08T08:48:15.310Z,5724.00
2022-11-08T08:49:15.241Z,5756.00
2022-11-08T08:50:15.235Z,5828.00
2022-11-08T08:51:15.259Z,5852.00
2022-11-08T08:52:15.380Z,5852.00
2022-11-08T08:53:15.479Z,5936.00
2022-11-08T08:54:15.303Z,5980.00
2022-11-08T08:55:15.214Z,5920.00
2022-11-08T08:56:15.169Z,5916.00
2022-11-08T08:57:15.177Z,5948.00
2022-11-08T08:58:15.153Z,5980.00
2022-11-08T09:02:16.121Z,6052.00
2022-11-08T09:03:15.260Z,6068.00
2022-11-08T09:04:15.097Z,6064.00
2022-11-08T09:05:15.089Z,6048.00
2022-11-08T09:06:15.116Z,6020.00
2022-11-08T09:07:15.132Z,5988.00
2022-11-08T09:08:15.036Z,5944.00
2022-11-08T09:09:15.022Z,5900.00
2022-11-08T09:10:15.008Z,5860.00
2022-11-08T09:11:15.024Z,5796.00
2022-11-08T09:12:14.991Z,5744.00
2022-11-08T09:13:15.221Z,5680.00
2022-11-08T09:14:14.975Z,5628.00
2022-11-08T09:15:15.074Z,5580.00
2022-11-08T09:16:14.936Z,5540.00
2022-11-08T09:17:14.959Z,5520.00
2022-11-08T09:18:14.954Z,5516.00
2022-11-08T09:19:15.069Z,5496.00
2022-11-08T09:20:14.906Z,5512.00
2022-11-08T09:21:14.952Z,5532.00
2022-11-08T09:22:14.918Z,5552.00
2022-11-08T09:23:15.170Z,5552.00
2022-11-08T09:24:15.007Z,5540.00
2022-11-08T09:25:14.844Z,5504.00
2022-11-08T09:26:14.832Z,5456.00
2022-11-08T09:27:14.881Z,5388.00
2022-11-08T09:28:14.805Z,5320.00
2022-11-08T09:29:14.794Z,5256.00
2022-11-08T09:30:14.789Z,5196.00
2022-11-08T09:31:14.781Z,5156.00
2022-11-08T09:32:14.754Z,5088.00
2022-11-08T09:33:15.169Z,5000.00
2022-11-08T09:34:17.603Z,4888.00
2022-11-08T09:35:15.750Z,4772.00
2022-11-08T09:36:15.592Z,4676.00
2022-11-08T09:37:14.719Z,4592.00
2022-11-08T09:38:15.009Z,4508.00
2022-11-08T09:39:14.668Z,4416.00
2022-11-08T09:40:14.680Z,4312.00
2022-11-08T09:41:14.662Z,4196.00
2022-11-08T09:42:14.655Z,4064.00
2022-11-08T09:43:14.915Z,3928.00
2022-11-08T09:44:14.639Z,3808.00
2022-11-08T09:45:14.621Z,3716.00
2022-11-08T09:46:14.631Z,3644.00
2022-11-08T09:47:14.608Z,3580.00
2022-11-08T09:48:14.582Z,3524.00
2022-11-08T09:49:14.569Z,3472.00
2022-11-08T09:50:14.541Z,3448.00
2022-11-08T09:51:14.565Z,3448.00
2022-11-08T09:52:14.540Z,3480.00
2022-11-08T09:53:14.831Z,3532.00
2022-11-08T09:54:18.499Z,3604.00
2022-11-08T09:55:14.515Z,3688.00
2022-11-08T09:56:14.483Z,3792.00
2022-11-08T09:57:14.477Z,3908.00
2022-11-08T09:58:14.489Z,4028.00
2022-11-08T09:59:14.554Z,4148.00
2022-11-08T10:00:14.456Z,4268.00
2022-11-08T10:01:14.539Z,4384.00
2022-11-08T10:02:14.476Z,4492.00
2022-11-08T10:03:14.906Z,4592.00
2022-11-08T10:04:14.394Z,4696.00
2022-11-08T10:05:14.392Z,4824.00
2022-11-08T10:06:14.377Z,4992.00
2022-11-08T10:07:14.567Z,5168.00
2022-11-08T10:08:14.353Z,5320.00
2022-11-08T10:09:14.356Z,5428.00
2022-11-08T10:10:14.352Z,5496.00
2022-11-08T10:11:14.331Z,5504.00
2022-11-08T10:12:14.336Z,5480.00
2022-11-08T10:13:14.297Z,5448.00
2022-11-08T10:14:14.300Z,5404.00
2022-11-08T10:15:14.332Z,5380.00
2022-11-08T10:16:14.331Z,5388.00
2022-11-08T10:17:14.254Z,5424.00
2022-11-08T10:18:14.242Z,5488.00
2022-11-08T10:19:14.226Z,5564.00
2022-11-08T10:20:14.230Z,5664.00
2022-11-08T10:21:14.247Z,5768.00
2022-11-08T10:22:14.191Z,5872.00
2022-11-08T10:23:14.246Z,5960.00
2022-11-08T10:24:14.171Z,6024.00
2022-11-08T10:25:14.179Z,6060.00
2022-11-08T10:26:14.143Z,6076.00
2022-11-08T10:27:14.552Z,6084.00
2022-11-08T10:28:14.124Z,6092.00
2022-11-08T10:29:14.168Z,6096.00
2022-11-08T10:30:14.113Z,6096.00
2022-11-08T10:31:14.224Z,6096.00
2022-11-08T10:32:14.081Z,6092.00
2022-11-08T10:33:14.092Z,6076.00
2022-11-08T10:34:14.059Z,6048.00
2022-11-08T10:35:14.056Z,6020.00
2022-11-08T10:36:14.084Z,5988.00
2022-11-08T10:37:14.027Z,5956.00
2022-11-08T10:38:14.052Z,5924.00
2022-11-08T10:39:13.998Z,5884.00
2022-11-08T10:40:14.059Z,5856.00
2022-11-08T10:41:13.982Z,5856.00
2022-11-08T10:42:13.960Z,5888.00
2022-11-08T10:43:13.964Z,5936.00
2022-11-08T10:44:13.974Z,5996.00
2022-11-08T10:45:13.936Z,6072.00
2022-11-08T10:46:13.939Z,6148.00
2022-11-08T10:47:13.926Z,6208.00
2022-11-08T10:48:13.941Z,6260.00
2022-11-08T10:49:13.897Z,6300.00
2022-11-08T10:50:13.886Z,6332.00
2022-11-08T10:51:13.865Z,6364.00
2022-11-08T10:52:13.843Z,6400.00
2022-11-08T10:53:13.839Z,6448.00
2022-11-08T10:54:13.845Z,6508.00
2022-11-08T10:55:13.846Z,6584.00
2022-11-08T10:56:13.820Z,6656.00
2022-11-08T10:57:13.788Z,6724.00
2022-11-08T10:58:13.787Z,6768.00
2022-11-08T10:59:13.796Z,6796.00
2022-11-08T11:00:13.784Z,6784.00
2022-11-08T11:01:13.756Z,6756.00
2022-11-08T11:02:13.873Z,6704.00
2022-11-08T11:03:13.794Z,6644.00
2022-11-08T11:04:13.726Z,6592.00
2022-11-08T11:05:13.703Z,6536.00
2022-11-08T11:06:13.756Z,6500.00
2022-11-08T11:07:13.735Z,6492.00
2022-11-08T11:08:13.687Z,6524.00
2022-11-08T11:09:13.662Z,6560.00
2022-11-08T11:10:13.662Z,6596.00
2022-11-08T11:11:13.631Z,6612.00
2022-11-08T11:12:13.634Z,6636.00
2022-11-08T11:13:13.712Z,6676.00
2022-11-08T11:14:16.512Z,6716.00
2022-11-08T11:15:14.614Z,6756.00
2022-11-08T11:16:13.577Z,6792.00
2022-11-08T11:17:13.637Z,6836.00
2022-11-08T11:18:13.571Z,6876.00
2022-11-08T11:19:13.581Z,6920.00
2022-11-08T11:20:13.543Z,6980.00
2022-11-08T11:21:13.543Z,7036.00
2022-11-08T11:22:13.557Z,7096.00
2022-11-08T11:23:13.511Z,7152.00
2022-11-08T11:24:16.602Z,7192.00
2022-11-08T11:25:14.497Z,7200.00
2022-11-08T11:26:13.475Z,7208.00
2022-11-08T11:27:13.478Z,7200.00
2022-11-08T11:28:13.456Z,7164.00
2022-11-08T11:29:13.442Z,7104.00
2022-11-08T11:30:13.447Z,7008.00
2022-11-08T11:31:13.461Z,6888.00
2022-11-08T11:32:13.421Z,6748.00
2022-11-08T11:33:13.434Z,6588.00
2022-11-08T11:34:13.394Z,6448.00
2022-11-08T11:35:13.383Z,6340.00
2022-11-08T11:36:13.923Z,6280.00
2022-11-08T11:37:13.389Z,6248.00
2022-11-08T11:38:13.364Z,6228.00
2022-11-08T11:39:13.321Z,6204.00
2022-11-08T11:40:13.318Z,6168.00
2022-11-08T11:41:13.357Z,6128.00
2022-11-08T11:42:39.185Z,6096.00
2022-11-08T11:43:14.289Z,6092.00
2022-11-08T11:44:13.271Z,6112.00
2022-11-08T11:45:13.250Z,6152.00
2022-11-08T11:46:13.241Z,6212.00
2022-11-08T11:47:13.239Z,6312.00
2022-11-08T11:48:13.243Z,6440.00
2022-11-08T11:49:13.223Z,6600.00
2022-11-08T11:50:13.212Z,6756.00
2022-11-08T11:51:13.360Z,6900.00
2022-11-08T11:52:13.183Z,7028.00
2022-11-08T11:53:13.473Z,7136.00
2022-11-08T11:54:13.168Z,7228.00
2022-11-08T11:55:13.143Z,7304.00
2022-11-08T11:56:13.150Z,7340.00
2022-11-08T11:57:13.139Z,7340.00
2022-11-08T11:58:13.116Z,7316.00
2022-11-08T11:59:13.163Z,7284.00
2022-11-08T12:00:13.123Z,7264.00
2022-11-08T12:01:14.628Z,7264.00
2022-11-08T12:02:13.143Z,7252.00
2022-11-08T12:03:13.128Z,7216.00
2022-11-08T12:04:13.063Z,7156.00
2022-11-08T12:05:13.061Z,7064.00
2022-11-08T12:06:13.030Z,6992.00
2022-11-08T12:07:13.062Z,6924.00
2022-11-08T12:08:13.014Z,6832.00
2022-11-08T12:09:12.998Z,6700.00
2022-11-08T12:10:13.055Z,6600.00
2022-11-08T12:11:12.970Z,6344.00
2022-11-08T12:12:12.958Z,6160.00
2022-11-08T12:13:12.946Z,6124.00
2022-11-08T12:14:12.939Z,6024.00
2022-11-08T12:15:12.940Z,6012.00
2022-11-08T12:16:12.909Z,6468.00
2022-11-08T12:17:12.980Z,6220.00
2022-11-08T12:18:15.404Z,5976.00
2022-11-08T12:19:13.871Z,5968.00
2022-11-08T12:20:12.920Z,5972.00
2022-11-08T12:21:12.869Z,5940.00
2022-11-08T12:22:12.846Z,5880.00
2022-11-08T12:23:12.887Z,5832.00
2022-11-08T12:24:12.821Z,5832.00
2022-11-08T12:25:12.825Z,5888.00
2022-11-08T12:26:12.819Z,5944.00
2022-11-08T12:27:12.806Z,6000.00
2022-11-08T12:28:12.775Z,6040.00
2022-11-08T12:29:12.786Z,5996.00
2022-11-08T12:30:12.808Z,5868.00
2022-11-08T12:31:12.764Z,5720.00
2022-11-08T12:32:12.730Z,5584.00
2022-11-08T12:33:12.723Z,5480.00
2022-11-08T12:34:12.736Z,5400.00
2022-11-08T12:35:12.699Z,5348.00
2022-11-08T12:36:12.696Z,5328.00
2022-11-08T12:37:12.685Z,5340.00
2022-11-08T12:38:12.668Z,5368.00
2022-11-08T12:39:12.756Z,5388.00
2022-11-08T12:40:12.685Z,5388.00
2022-11-08T12:41:12.632Z,5416.00
2022-11-08T12:42:12.618Z,5452.00
2022-11-08T12:43:12.647Z,5528.00
2022-11-08T12:44:12.617Z,5580.00